createdAt,value
2018-10-11T11:48:20.023Z,1004.57
2018-10-11T11:49:19.989Z,1004.47
2018-10-11T11:50:19.993Z,1004.52
2018-10-11T11:51:19.960Z,1004.55
2018-10-11T11:52:19.943Z,1004.52
2018-10-11T11:53:19.931Z,1004.57
2018-10-11T11:54:19.917Z,1004.58
2018-10-11T11:55:19.916Z,1004.60
2018-10-11T11:56:19.892Z,1004.61
2018-10-11T11:57:19.878Z,1004.62
2018-10-11T11:58:19.874Z,1004.66
2018-10-11T11:59:19.850Z,1004.68
2018-10-11T12:00:19.856Z,1004.62
2018-10-11T12:01:19.835Z,1004.63
2018-10-11T12:02:19.813Z,1004.65
2018-10-11T12:03:19.800Z,1004.65
2018-10-11T12:04:19.787Z,1004.68
2018-10-11T12:05:19.779Z,1004.59
2018-10-11T12:06:19.774Z,1004.64
2018-10-11T12:07:19.754Z,1004.65
2018-10-11T12:08:19.735Z,1004.64
2018-10-11T12:09:19.726Z,1004.62
2018-10-11T12:10:19.755Z,1004.60
2018-10-11T12:11:19.722Z,1004.61
2018-10-11T12:12:19.688Z,1004.60
2018-10-11T12:13:19.684Z,1004.60
2018-10-11T12:14:19.676Z,1004.58
2018-10-11T12:15:19.656Z,1004.59
2018-10-11T12:16:19.681Z,1004.57
2018-10-11T12:17:19.631Z,1004.54
2018-10-11T12:18:19.624Z,1004.52
2018-10-11T12:19:19.606Z,1004.51
2018-10-11T12:20:19.598Z,1004.53
2018-10-11T12:21:19.589Z,1004.55
2018-10-11T12:22:19.591Z,1004.54
2018-10-11T12:23:19.561Z,1004.59
2018-10-11T12:24:19.557Z,1004.58
2018-10-11T12:25:19.541Z,1004.63
2018-10-11T12:26:19.538Z,1004.65
2018-10-11T12:27:19.540Z,1004.67
2018-10-11T12:28:19.569Z,1004.66
2018-10-11T12:29:19.496Z,1004.65
2018-10-11T12:30:19.488Z,1004.65
2018-10-11T12:31:19.476Z,1004.68
2018-10-11T12:32:19.467Z,1004.67
2018-10-11T12:33:19.470Z,1004.68
2018-10-11T12:34:19.439Z,1004.70
2018-10-11T12:35:19.512Z,1004.68
2018-10-11T12:36:19.431Z,1004.70
2018-10-11T12:37:19.408Z,1004.72
2018-10-11T12:38:19.418Z,1004.68
2018-10-11T12:39:19.383Z,1004.67
2018-10-11T12:40:19.377Z,1004.70
2018-10-11T12:41:19.363Z,1004.69
2018-10-11T12:42:19.359Z,1004.65
2018-10-11T12:43:19.342Z,1004.68
2018-10-11T12:44:19.370Z,1004.62
2018-10-11T12:45:19.380Z,1004.63
2018-10-11T12:46:19.315Z,1004.60
2018-10-11T12:47:19.298Z,1004.62
2018-10-11T12:48:19.288Z,1004.56
2018-10-11T12:49:19.287Z,1004.55
2018-10-11T12:50:19.289Z,1004.55
2018-10-11T12:51:19.256Z,1004.52
2018-10-11T12:52:19.246Z,1004.51
2018-10-11T12:53:19.235Z,1004.48
2018-10-11T12:54:19.273Z,1004.45
2018-10-11T12:55:19.242Z,1004.43
2018-10-11T12:56:19.309Z,1004.47
2018-10-11T12:57:20.844Z,1004.43
2018-10-11T12:58:19.191Z,1004.45
2018-10-11T12:59:19.174Z,1004.48
2018-10-11T13:00:19.167Z,1004.49
2018-10-11T13:01:21.128Z,1004.50
2018-10-11T13:02:19.155Z,1004.53
2018-10-11T13:03:19.186Z,1004.55
2018-10-11T13:04:19.127Z,1004.57
2018-10-11T13:05:19.112Z,1004.59
2018-10-11T13:06:19.104Z,1004.59
2018-10-11T13:07:19.115Z,1004.59
2018-10-11T13:08:19.080Z,1004.60
2018-10-11T13:09:19.144Z,1004.60
2018-10-11T13:10:19.057Z,1004.63
2018-10-11T13:11:19.046Z,1004.58
2018-10-11T13:12:19.038Z,1004.56
2018-10-11T13:13:19.037Z,1004.59
2018-10-11T13:14:19.014Z,1004.58
2018-10-11T13:15:19.008Z,1004.58
2018-10-11T13:16:18.996Z,1004.57
2018-10-11T13:17:18.984Z,1004.51
2018-10-11T13:18:18.989Z,1004.48
2018-10-11T13:19:18.960Z,1004.48
2018-10-11T13:20:18.947Z,1004.43
2018-10-11T13:21:18.935Z,1004.44
2018-10-11T13:22:18.927Z,1004.45
2018-10-11T13:23:18.928Z,1004.41
2018-10-11T13:24:18.904Z,1004.39
2018-10-11T13:25:18.893Z,1004.41
2018-10-11T13:26:18.884Z,1004.41
2018-10-11T13:27:18.871Z,1004.41
2018-10-11T13:28:18.882Z,1004.42
2018-10-11T13:29:18.852Z,1004.37
2018-10-11T13:30:18.839Z,1004.46
2018-10-11T13:31:18.825Z,1004.40
2018-10-11T13:32:18.816Z,1004.43
2018-10-11T13:33:18.801Z,1004.44
2018-10-11T13:34:18.820Z,1004.47
2018-10-11T13:35:18.840Z,1004.47
2018-10-11T13:36:18.776Z,1004.49
2018-10-11T13:37:18.760Z,1004.46
2018-10-11T13:38:18.750Z,1004.52
2018-10-11T13:39:18.738Z,1004.46
2018-10-11T13:40:18.748Z,1004.46
2018-10-11T13:41:18.803Z,1004.46
2018-10-11T13:42:18.705Z,1004.43
2018-10-11T13:43:18.691Z,1004.44
2018-10-11T13:44:18.720Z,1004.43
2018-10-11T13:45:18.669Z,1004.43
2018-10-11T13:46:18.658Z,1004.42
2018-10-11T13:47:18.657Z,1004.44
2018-10-11T13:48:18.637Z,1004.42
2018-10-11T13:49:18.625Z,1004.41
2018-10-11T13:50:18.626Z,1004.40
2018-10-11T13:51:18.600Z,1004.36
2018-10-11T13:52:21.684Z,1004.35
2018-10-11T13:53:21.324Z,1004.30
2018-10-11T13:54:18.602Z,1004.29
2018-10-11T13:55:18.553Z,1004.30
2018-10-11T13:56:18.542Z,1004.25
2018-10-11T13:57:20.895Z,1004.26
2018-10-11T13:58:18.519Z,1004.22
2018-10-11T13:59:18.506Z,1004.19
2018-10-11T14:00:18.513Z,1004.18
2018-10-11T14:01:18.486Z,1004.20
2018-10-11T14:02:18.473Z,1004.18
2018-10-11T14:03:18.461Z,1004.22
2018-10-11T14:04:18.452Z,1004.19
2018-10-11T14:05:18.452Z,1004.19
2018-10-11T14:06:18.427Z,1004.22
2018-10-11T14:07:18.415Z,1004.25
2018-10-11T14:08:18.408Z,1004.25
2018-10-11T14:09:18.395Z,1004.27
2018-10-11T14:10:18.402Z,1004.24
2018-10-11T14:11:18.371Z,1004.30
2018-10-11T14:12:18.359Z,1004.30
2018-10-11T14:13:20.485Z,1004.28
2018-10-11T14:14:18.332Z,1004.24
2018-10-11T14:15:18.333Z,1004.27
2018-10-11T14:16:18.307Z,1004.26
2018-10-11T14:17:18.304Z,1004.27
2018-10-11T14:18:18.284Z,1004.23
2018-10-11T14:19:18.270Z,1004.26
2018-10-11T14:20:18.277Z,1004.26
2018-10-11T14:21:18.247Z,1004.29
2018-10-11T14:22:18.238Z,1004.28
2018-10-11T14:23:18.232Z,1004.28
2018-10-11T14:24:18.236Z,1004.31
2018-10-11T14:25:18.223Z,1004.25
2018-10-11T14:26:18.195Z,1004.31
2018-10-11T14:27:18.176Z,1004.29
2018-10-11T14:28:18.163Z,1004.30
2018-10-11T14:29:18.157Z,1004.27
2018-10-11T14:30:18.142Z,1004.26
2018-10-11T14:31:18.150Z,1004.27
2018-10-11T14:32:18.117Z,1004.25
2018-10-11T14:33:18.110Z,1004.27
2018-10-11T14:34:18.096Z,1004.24
2018-10-11T14:35:18.086Z,1004.23
2018-10-11T14:36:18.124Z,1004.25
2018-10-11T14:37:18.140Z,1004.23
2018-10-11T14:38:18.053Z,1004.26
2018-10-11T14:39:18.042Z,1004.22
2018-10-11T14:40:18.026Z,1004.19
2018-10-11T14:41:18.016Z,1004.13
2018-10-11T14:42:18.026Z,1004.15
2018-10-11T14:43:18.023Z,1004.13
2018-10-11T14:44:17.979Z,1004.14
2018-10-11T14:45:17.968Z,1004.09
2018-10-11T14:46:17.959Z,1004.08
2018-10-11T14:47:17.959Z,1004.09
2018-10-11T14:48:17.938Z,1004.10
2018-10-11T14:49:17.925Z,1004.11
2018-10-11T14:50:17.912Z,1004.10
2018-10-11T14:51:17.925Z,1004.09
2018-10-11T14:52:17.910Z,1004.10
2018-10-11T14:53:17.878Z,1004.05
2018-10-11T14:54:17.872Z,1004.06
2018-10-11T14:55:17.850Z,1004.03
2018-10-11T14:56:17.846Z,1004.04
2018-10-11T14:57:17.897Z,1004.04
2018-10-11T14:58:17.818Z,1004.04
2018-10-11T14:59:17.804Z,1004.05
2018-10-11T15:00:17.807Z,1004.07
2018-10-11T15:01:17.783Z,1004.02
2018-10-11T15:02:17.769Z,1004.04
2018-10-11T15:03:17.870Z,1004.00
2018-10-11T15:04:17.751Z,1004.03
2018-10-11T15:05:17.800Z,1004.02
2018-10-11T15:06:17.722Z,1004.03
2018-10-11T15:07:17.713Z,1004.04
2018-10-11T15:08:17.716Z,1004.00
2018-10-11T15:09:17.696Z,1004.03
2018-10-11T15:10:17.681Z,1004.02
2018-10-11T15:11:17.719Z,1004.01
2018-10-11T15:12:17.667Z,1004.01
2018-10-11T15:13:17.644Z,1004.00
2018-10-11T15:14:17.628Z,1004.00
2018-10-11T15:15:17.616Z,1004.01
2018-10-11T15:16:17.603Z,1003.99
2018-10-11T15:17:17.608Z,1004.01
2018-10-11T15:18:17.579Z,1003.99
2018-10-11T15:19:17.565Z,1004.00
2018-10-11T15:20:17.554Z,1004.00
2018-10-11T15:21:17.543Z,1004.02
2018-10-11T15:22:17.544Z,1004.03
2018-10-11T15:23:17.517Z,1004.05
2018-10-11T15:24:17.505Z,1004.06
2018-10-11T15:25:17.497Z,1004.02
2018-10-11T15:26:17.481Z,1004.05
2018-10-11T15:27:17.513Z,1004.01
2018-10-11T15:28:17.455Z,1003.98
2018-10-11T15:29:17.466Z,1004.00
2018-10-11T15:30:17.432Z,1003.98
2018-10-11T15:31:17.418Z,1003.98
2018-10-11T15:32:17.413Z,1004.00
2018-10-11T15:33:17.406Z,1004.01
2018-10-11T15:34:17.382Z,1004.01
2018-10-11T15:35:17.374Z,1004.00
2018-10-11T15:36:17.358Z,1004.03
2018-10-11T15:37:17.367Z,1004.06
2018-10-11T15:38:17.332Z,1004.03
2018-10-11T15:39:17.321Z,1004.06
2018-10-11T15:40:17.308Z,1004.06
2018-10-11T15:41:17.295Z,1004.03
2018-10-11T15:42:17.282Z,1004.05
2018-10-11T15:43:17.282Z,1004.07
2018-10-11T15:44:17.262Z,1004.07
2018-10-11T15:45:17.248Z,1004.05
2018-10-11T15:46:17.232Z,1004.12
2018-10-11T15:47:17.218Z,1004.15
2018-10-11T15:48:17.217Z,1004.13
2018-10-11T15:49:17.192Z,1004.17
2018-10-11T15:50:17.177Z,1004.16
2018-10-11T15:51:17.167Z,1004.19
2018-10-11T15:52:17.186Z,1004.19
2018-10-11T15:53:17.155Z,1004.19
2018-10-11T15:54:17.129Z,1004.20
2018-10-11T15:55:17.114Z,1004.21
2018-10-11T15:56:17.105Z,1004.20
2018-10-11T15:57:17.090Z,1004.18
2018-10-11T15:58:17.095Z,1004.16
2018-10-11T15:59:17.067Z,1004.17
2018-10-11T16:00:17.062Z,1004.15
2018-10-11T16:01:17.039Z,1004.14
2018-10-11T16:02:17.028Z,1004.14
2018-10-11T16:03:17.051Z,1004.12
2018-10-11T16:04:16.997Z,1004.12
2018-10-11T16:05:16.990Z,1004.10
2018-10-11T16:06:16.978Z,1004.11
2018-10-11T16:07:16.964Z,1004.13
2018-10-11T16:08:16.951Z,1004.13
2018-10-11T16:09:17.088Z,1004.15
2018-10-11T16:10:16.924Z,1004.15
2018-10-11T16:11:16.910Z,1004.18
2018-10-11T16:12:16.895Z,1004.17
2018-10-11T16:13:16.884Z,1004.23
2018-10-11T16:14:16.883Z,1004.24
2018-10-11T16:15:16.857Z,1004.29
2018-10-11T16:16:16.848Z,1004.30
2018-10-11T16:17:16.835Z,1004.33
2018-10-11T16:18:16.821Z,1004.34
2018-10-11T16:19:16.822Z,1004.38
2018-10-11T16:20:16.791Z,1004.40
2018-10-11T16:21:16.786Z,1004.45
2018-10-11T16:22:16.769Z,1004.38
2018-10-11T16:23:16.755Z,1004.39
2018-10-11T16:24:16.759Z,1004.41
2018-10-11T16:25:16.732Z,1004.40
2018-10-11T16:26:16.715Z,1004.36
2018-10-11T16:27:16.698Z,1004.43
2018-10-11T16:28:16.688Z,1004.41
2018-10-11T16:29:16.676Z,1004.39
2018-10-11T16:30:16.677Z,1004.41
2018-10-11T16:31:16.650Z,1004.41
2018-10-11T16:32:16.676Z,1004.38
2018-10-11T16:33:16.621Z,1004.38
2018-10-11T16:34:16.607Z,1004.36
2018-10-11T16:35:16.609Z,1004.36
2018-10-11T16:36:16.583Z,1004.30
2018-10-11T16:37:16.567Z,1004.32
2018-10-11T16:38:16.555Z,1004.33
2018-10-11T16:39:16.585Z,1004.37
2018-10-11T16:40:16.543Z,1004.33
2018-10-11T16:41:16.513Z,1004.40
2018-10-11T16:42:16.499Z,1004.40
2018-10-11T16:43:16.485Z,1004.37
2018-10-11T16:44:16.470Z,1004.42
2018-10-11T16:45:16.478Z,1004.36
2018-10-11T16:46:16.445Z,1004.36
2018-10-11T16:47:16.433Z,1004.38
2018-10-11T16:48:16.420Z,1004.35
2018-10-11T16:49:16.412Z,1004.33
2018-10-11T16:50:16.425Z,1004.31
2018-10-11T16:51:16.376Z,1004.38
2018-10-11T16:52:16.369Z,1004.37
2018-10-11T16:53:16.356Z,1004.34
2018-10-11T16:54:16.338Z,1004.36
2018-10-11T16:55:16.341Z,1004.35
2018-10-11T16:56:16.308Z,1004.37
2018-10-11T16:57:16.297Z,1004.33
2018-10-11T16:58:16.280Z,1004.37
2018-10-11T16:59:16.279Z,1004.39
2018-10-11T17:00:16.280Z,1004.36
2018-10-11T17:01:16.240Z,1004.39
2018-10-11T17:02:16.223Z,1004.42
2018-10-11T17:03:16.207Z,1004.44
2018-10-11T17:04:16.339Z,1004.46
2018-10-11T17:05:16.199Z,1004.44
2018-10-11T17:06:16.172Z,1004.46
2018-10-11T17:07:16.153Z,1004.49
2018-10-11T17:08:16.139Z,1004.45
2018-10-11T17:09:16.126Z,1004.49
2018-10-11T17:10:16.131Z,1004.46
2018-10-11T17:11:16.094Z,1004.46
2018-10-11T17:12:16.091Z,1004.51
2018-10-11T17:13:16.070Z,1004.55
2018-10-11T17:14:16.054Z,1004.56
2018-10-11T17:15:16.053Z,1004.57
2018-10-11T17:16:16.022Z,1004.60
2018-10-11T17:17:16.022Z,1004.61
2018-10-11T17:18:16.007Z,1004.60
2018-10-11T17:19:15.979Z,1004.61
2018-10-11T17:20:15.983Z,1004.63
2018-10-11T17:21:15.954Z,1004.64
2018-10-11T17:22:15.947Z,1004.62
2018-10-11T17:23:15.933Z,1004.60
2018-10-11T17:24:15.908Z,1004.65
2018-10-11T17:25:15.910Z,1004.65
2018-10-11T17:26:15.880Z,1004.69
2018-10-11T17:27:15.865Z,1004.66
2018-10-11T17:28:15.860Z,1004.71
2018-10-11T17:29:15.838Z,1004.72
2018-10-11T17:30:15.840Z,1004.70
2018-10-11T17:31:15.812Z,1004.73
2018-10-11T17:32:15.793Z,1004.70
2018-10-11T17:33:15.783Z,1004.73
2018-10-11T17:34:15.764Z,1004.73
2018-10-11T17:35:15.785Z,1004.73
2018-10-11T17:36:15.742Z,1004.75
2018-10-11T17:37:15.729Z,1004.77
2018-10-11T17:38:15.713Z,1004.78
2018-10-11T17:39:15.693Z,1004.80
2018-10-11T17:40:15.700Z,1004.83
2018-10-11T17:41:15.664Z,1004.83
2018-10-11T17:42:15.697Z,1004.86
2018-10-11T17:43:15.631Z,1004.82
2018-10-11T17:44:15.621Z,1004.77
2018-10-11T17:45:15.605Z,1004.77
2018-10-11T17:46:15.608Z,1004.71
2018-10-11T17:47:15.576Z,1004.80
2018-10-11T17:48:15.560Z,1004.73
2018-10-11T17:49:15.545Z,1004.74
2018-10-11T17:50:15.585Z,1004.76
2018-10-11T17:51:15.552Z,1004.78
2018-10-11T17:52:15.501Z,1004.78
2018-10-11T17:53:15.485Z,1004.80
2018-10-11T17:54:15.471Z,1004.84
2018-10-11T17:55:15.456Z,1004.85
2018-10-11T17:56:24.357Z,1004.84
2018-10-11T17:57:15.428Z,1004.81
2018-10-11T17:58:15.412Z,1004.86
2018-10-11T17:59:15.400Z,1004.89
2018-10-11T18:00:15.384Z,1004.87
2018-10-11T18:01:15.367Z,1004.88
2018-10-11T18:02:15.369Z,1004.84
2018-10-11T18:03:15.364Z,1004.90
2018-10-11T18:04:15.320Z,1004.86
2018-10-11T18:05:15.308Z,1004.87
2018-10-11T18:06:15.292Z,1004.94
2018-10-11T18:07:15.296Z,1004.94
2018-10-11T18:08:15.261Z,1004.92
2018-10-11T18:09:15.257Z,1004.88
2018-10-11T18:10:15.229Z,1004.94
2018-10-11T18:11:15.220Z,1004.93
2018-10-11T18:12:15.204Z,1004.95
2018-10-11T18:13:15.203Z,1004.97
2018-10-11T18:14:15.173Z,1004.99
2018-10-11T18:15:15.157Z,1004.99
2018-10-11T18:16:15.188Z,1004.96
2018-10-11T18:17:15.131Z,1005.01
2018-10-11T18:18:15.126Z,1004.97
2018-10-11T18:19:15.095Z,1005.00
2018-10-11T18:20:15.080Z,1004.98
2018-10-11T18:21:15.081Z,1004.97
2018-10-11T18:22:15.052Z,1004.98
2018-10-11T18:23:15.075Z,1004.97
2018-10-11T18:24:15.022Z,1005.01
2018-10-11T18:25:15.007Z,1005.01
2018-10-11T18:26:14.988Z,1005.03
2018-10-11T18:27:14.983Z,1005.06
2018-10-11T18:28:14.976Z,1005.05
2018-10-11T18:29:14.964Z,1005.05
2018-10-11T18:30:14.927Z,1005.10
2018-10-11T18:31:14.919Z,1005.08
2018-10-11T18:32:14.902Z,1005.12
2018-10-11T18:33:14.900Z,1005.12
2018-10-11T18:34:14.869Z,1005.15
2018-10-11T18:35:14.854Z,1005.09
